PWSweather.com
Personal Weather Stations
Station Observations

YeovilGB

Lat: 50.949, Lon: -2.627

Elevation: 70

Station Type: Vantage Pro

http://www.yeovil-weather.me.uk/

High Low Average
Temperature 51.2°F10.7°C 44.5°F6.9°C 47.7°F8.7°C
Dew Point 46.5°F8.1°C 38.7°F3.7°C 41.7°F5.4°C
Winds 18.4 mph 29.6 kmh Calm Calm 9.0 mph SW14.5 kmh SW
Wind Gusts 31.1 mph50.1 kmh -- 16.0 mph25.7 kmh
Humidity 89% 71% 80%
Pressure 29.69 in1005.4 mb 29.32 in992.9 mb -
Precipitation 0.13 in3.3 mm - -
Hour Temp Dew Point Humidity Winds Wind Gusts Pressure Precip Precip Rate Daily Precip Total
12:00 AM 51.2°F10.7°C 46.5°F8.1°C 84% 16.1 mph SW25.9 kmh SW 26.5 mph42.6 kmh 29.34 in993.6 mb - 0.00 in0.0 mm 0.00 in0.0 mm
12:10 AM 51.0°F10.6°C 45.7°F7.6°C 82% 11.5 mph SW18.5 kmh SW 25.3 mph40.7 kmh 29.34 in993.6 mb - 0.00 in0.0 mm 0.00 in0.0 mm
12:20 AM 50.9°F10.5°C 45.6°F7.6°C 82% 12.7 mph SW20.4 kmh SW 19.6 mph31.5 kmh 29.34 in993.6 mb - 0.00 in0.0 mm 0.00 in0.0 mm
12:30 AM 50.8°F10.4°C 44.8°F7.1°C 80% 13.8 mph SW22.2 kmh SW 19.6 mph31.5 kmh 29.34 in993.6 mb - 0.00 in0.0 mm 0.00 in0.0 mm
12:40 AM 50.6°F10.3°C 45.0°F7.2°C 81% 9.2 mph SW14.8 kmh SW 26.5 mph42.6 kmh 29.32 in992.9 mb - 0.00 in0.0 mm 0.00 in0.0 mm
12:50 AM 50.3°F10.2°C 44.7°F7.1°C 81% 10.4 mph SW16.7 kmh SW 15.0 mph24.1 kmh 29.33 in993.2 mb - 0.00 in0.0 mm 0.00 in0.0 mm
01:00 AM 50.2°F10.1°C 44.6°F7.0°C 81% 12.7 mph SW20.4 kmh SW 20.7 mph33.3 kmh 29.32 in992.9 mb - 0.00 in0.0 mm 0.00 in0.0 mm
01:10 AM 50.2°F10.1°C 44.3°F6.8°C 80% 11.5 mph SW18.5 kmh SW 16.1 mph25.9 kmh 29.33 in993.2 mb - 0.00 in0.0 mm 0.00 in0.0 mm
01:20 AM 50.2°F10.1°C 44.3°F6.8°C 80% 12.7 mph SW20.4 kmh SW 27.6 mph44.4 kmh 29.34 in993.6 mb - 0.00 in0.0 mm 0.00 in0.0 mm
01:30 AM 50.3°F10.2°C 43.0°F6.1°C 76% 18.4 mph SW29.6 kmh SW 29.9 mph48.1 kmh 29.34 in993.6 mb - 0.00 in0.0 mm 0.00 in0.0 mm
01:40 AM 50.3°F10.2°C 43.0°F6.1°C 76% 15.0 mph SW24.1 kmh SW 21.9 mph35.2 kmh 29.34 in993.6 mb - 0.00 in0.0 mm 0.00 in0.0 mm
01:50 AM 50.0°F10.0°C 42.0°F5.6°C 74% 13.8 mph SW22.2 kmh SW 19.6 mph31.5 kmh 29.33 in993.2 mb - 0.00 in0.0 mm 0.00 in0.0 mm
02:00 AM 49.6°F9.8°C 40.6°F4.8°C 71% 12.7 mph SW20.4 kmh SW 19.6 mph31.5 kmh 29.34 in993.6 mb - 0.00 in0.0 mm 0.00 in0.0 mm
02:10 AM 49.2°F9.6°C 40.6°F4.8°C 72% 13.8 mph SW22.2 kmh SW 31.1 mph50.1 kmh 29.34 in993.6 mb - 0.00 in0.0 mm 0.00 in0.0 mm
02:20 AM 49.0°F9.4°C 40.7°F4.8°C 73% 16.1 mph SW25.9 kmh SW 24.2 mph38.9 kmh 29.33 in993.2 mb - 0.00 in0.0 mm 0.00 in0.0 mm
02:30 AM 49.1°F9.5°C 40.5°F4.7°C 72% 10.4 mph WSW16.7 kmh WSW 21.9 mph35.2 kmh 29.33 in993.2 mb - 0.00 in0.0 mm 0.00 in0.0 mm
02:40 AM 49.0°F9.4°C 40.0°F4.4°C 71% 12.7 mph SW20.4 kmh SW 21.9 mph35.2 kmh 29.33 in993.2 mb - 0.00 in0.0 mm 0.00 in0.0 mm
02:50 AM 49.2°F9.6°C 40.2°F4.6°C 71% 18.4 mph SW29.6 kmh SW 29.9 mph48.1 kmh 29.34 in993.6 mb - 0.00 in0.0 mm 0.00 in0.0 mm
03:00 AM 48.0°F8.9°C 39.4°F4.1°C 72% 18.4 mph SW29.6 kmh SW 21.9 mph35.2 kmh 29.34 in993.6 mb - 0.01 in0.3 mm 0.01 in0.3 mm
03:10 AM 47.2°F8.4°C 39.0°F3.9°C 73% 8.1 mph SW13.0 kmh SW 24.2 mph38.9 kmh 29.32 in992.9 mb - 0.00 in0.0 mm 0.01 in0.3 mm
03:20 AM 46.9°F8.3°C 38.7°F3.7°C 73% 15.0 mph SW24.1 kmh SW 24.2 mph38.9 kmh 29.35 in993.9 mb - 0.00 in0.0 mm 0.01 in0.3 mm
03:30 AM 47.1°F8.4°C 38.9°F3.8°C 73% 15.0 mph SW24.1 kmh SW 24.2 mph38.9 kmh 29.36 in994.2 mb - 0.00 in0.0 mm 0.01 in0.3 mm
03:40 AM 46.7°F8.2°C 39.2°F4.0°C 75% 12.7 mph SW20.4 kmh SW 19.6 mph31.5 kmh 29.35 in993.9 mb - 0.00 in0.0 mm 0.01 in0.3 mm
03:50 AM 46.1°F7.8°C 39.6°F4.2°C 78% 11.5 mph SW18.5 kmh SW 16.1 mph25.9 kmh 29.36 in994.2 mb - 0.00 in0.0 mm 0.01 in0.3 mm
04:00 AM 45.1°F7.3°C 40.2°F4.6°C 83% 11.5 mph SW18.5 kmh SW 21.9 mph35.2 kmh 29.36 in994.2 mb - 0.04 in1.0 mm 0.05 in1.3 mm
04:10 AM 44.7°F7.1°C 40.5°F4.7°C 85% 13.8 mph SW22.2 kmh SW 18.4 mph29.6 kmh 29.36 in994.2 mb - 0.00 in0.0 mm 0.05 in1.3 mm
04:20 AM 44.7°F7.1°C 40.8°F4.9°C 86% 11.5 mph SW18.5 kmh SW 12.7 mph20.4 kmh 29.37 in994.6 mb - 0.00 in0.0 mm 0.05 in1.3 mm
04:30 AM 44.7°F7.1°C 40.5°F4.7°C 85% 8.1 mph SW13.0 kmh SW 19.6 mph31.5 kmh 29.37 in994.6 mb - 0.00 in0.0 mm 0.05 in1.3 mm
04:40 AM 45.0°F7.2°C 40.5°F4.7°C 84% 6.9 mph WSW11.1 kmh WSW 13.8 mph22.2 kmh 29.38 in994.9 mb - 0.00 in0.0 mm 0.05 in1.3 mm
04:50 AM 45.4°F7.4°C 40.5°F4.7°C 83% 12.7 mph SW20.4 kmh SW 23.0 mph37.0 kmh 29.39 in995.3 mb - 0.01 in0.3 mm 0.06 in1.5 mm
05:00 AM 44.7°F7.1°C 40.4°F4.7°C 85% 10.4 mph WSW16.7 kmh WSW 20.7 mph33.3 kmh 29.40 in995.6 mb - 0.02 in0.5 mm 0.06 in1.5 mm
05:10 AM 44.5°F6.9°C 40.2°F4.6°C 85% 9.2 mph WSW14.8 kmh WSW 15.0 mph24.1 kmh 29.41 in995.9 mb - 0.00 in0.0 mm 0.06 in1.5 mm
05:20 AM 44.7°F7.1°C 39.9°F4.4°C 83% 10.4 mph WSW16.7 kmh WSW 18.4 mph29.6 kmh 29.41 in995.9 mb - 0.00 in0.0 mm 0.06 in1.5 mm
05:30 AM 44.9°F7.2°C 39.7°F4.3°C 82% 10.4 mph WSW16.7 kmh WSW 15.0 mph24.1 kmh 29.42 in996.3 mb - 0.00 in0.0 mm 0.06 in1.5 mm
05:40 AM 45.1°F7.3°C 39.3°F4.1°C 80% 10.4 mph WSW16.7 kmh WSW 18.4 mph29.6 kmh 29.43 in996.6 mb - 0.00 in0.0 mm 0.06 in1.5 mm
05:50 AM 45.4°F7.4°C 39.3°F4.1°C 79% 9.2 mph WSW14.8 kmh WSW 11.5 mph18.5 kmh 29.44 in997.0 mb - 0.00 in0.0 mm 0.06 in1.5 mm
06:00 AM 45.6°F7.6°C 39.5°F4.2°C 79% 8.1 mph SW13.0 kmh SW 16.1 mph25.9 kmh 29.44 in997.0 mb - 0.00 in0.0 mm 0.06 in1.5 mm
06:10 AM 45.8°F7.7°C 39.0°F3.9°C 77% 12.7 mph SW20.4 kmh SW 23.0 mph37.0 kmh 29.45 in997.3 mb - 0.00 in0.0 mm 0.06 in1.5 mm
06:20 AM 45.9°F7.7°C 39.1°F3.9°C 77% 10.4 mph SW16.7 kmh SW 16.1 mph25.9 kmh 29.45 in997.3 mb - 0.00 in0.0 mm 0.06 in1.5 mm
06:30 AM 46.1°F7.8°C 39.0°F3.9°C 76% 5.8 mph SW9.3 kmh SW 13.8 mph22.2 kmh 29.45 in997.3 mb - 0.00 in0.0 mm 0.06 in1.5 mm
06:40 AM 46.4°F8.0°C 39.3°F4.1°C 76% 11.5 mph SW18.5 kmh SW 26.5 mph42.6 kmh 29.46 in997.6 mb - 0.00 in0.0 mm 0.06 in1.5 mm
06:50 AM 46.8°F8.2°C 39.7°F4.3°C 76% 9.2 mph SW14.8 kmh SW 12.7 mph20.4 kmh 29.45 in997.3 mb - 0.00 in0.0 mm 0.06 in1.5 mm
07:00 AM 47.0°F8.3°C 39.1°F3.9°C 74% 11.5 mph SW18.5 kmh SW 18.4 mph29.6 kmh 29.45 in997.3 mb - 0.00 in0.0 mm 0.06 in1.5 mm
07:10 AM 47.2°F8.4°C 39.7°F4.3°C 75% 12.7 mph SW20.4 kmh SW 25.3 mph40.7 kmh 29.47 in998.0 mb - 0.00 in0.0 mm 0.06 in1.5 mm
07:20 AM 47.2°F8.4°C 40.7°F4.8°C 78% 6.9 mph SW11.1 kmh SW 10.4 mph16.7 kmh 29.49 in998.6 mb - 0.02 in0.5 mm 0.08 in2.0 mm
07:30 AM 46.1°F7.8°C 41.2°F5.1°C 83% 9.2 mph WNW14.8 kmh WNW 16.1 mph25.9 kmh 29.51 in999.3 mb - 0.05 in1.3 mm 0.12 in3.0 mm
07:40 AM 45.1°F7.3°C 40.9°F4.9°C 85% 4.6 mph WSW7.4 kmh WSW 11.5 mph18.5 kmh 29.51 in999.3 mb - 0.01 in0.3 mm 0.13 in3.3 mm
07:50 AM 44.8°F7.1°C 41.2°F5.1°C 87% 6.9 mph SW11.1 kmh SW 18.4 mph29.6 kmh 29.51 in999.3 mb - 0.00 in0.0 mm 0.13 in3.3 mm
08:00 AM 45.2°F7.3°C 40.7°F4.8°C 84% 9.2 mph SW14.8 kmh SW 18.4 mph29.6 kmh 29.51 in999.3 mb - 0.00 in0.0 mm 0.13 in3.3 mm
08:10 AM 45.8°F7.7°C 40.6°F4.8°C 82% 10.4 mph SW16.7 kmh SW 18.4 mph29.6 kmh 29.52 in999.7 mb - 0.00 in0.0 mm 0.13 in3.3 mm
08:20 AM 45.9°F7.7°C 40.4°F4.7°C 81% 10.4 mph SW16.7 kmh SW 18.4 mph29.6 kmh 29.53 in1000.0 mb - 0.00 in0.0 mm 0.13 in3.3 mm
08:30 AM 46.4°F8.0°C 40.6°F4.8°C 80% 11.5 mph SW18.5 kmh SW 16.1 mph25.9 kmh 29.53 in1000.0 mb - 0.00 in0.0 mm 0.13 in3.3 mm
08:40 AM 46.6°F8.1°C 40.8°F4.9°C 80% 9.2 mph SW14.8 kmh SW 18.4 mph29.6 kmh 29.55 in1000.7 mb - 0.00 in0.0 mm 0.13 in3.3 mm
08:50 AM 46.9°F8.3°C 41.4°F5.2°C 81% 12.7 mph SW20.4 kmh SW 18.4 mph29.6 kmh 29.55 in1000.7 mb - 0.00 in0.0 mm 0.13 in3.3 mm
09:00 AM 46.6°F8.1°C 41.1°F5.1°C 81% 13.8 mph SW22.2 kmh SW 23.0 mph37.0 kmh 29.56 in1001.0 mb - 0.00 in0.0 mm 0.13 in3.3 mm
09:10 AM 46.5°F8.1°C 41.0°F5.0°C 81% 5.8 mph WSW9.3 kmh WSW 11.5 mph18.5 kmh 29.57 in1001.4 mb - 0.00 in0.0 mm 0.13 in3.3 mm
09:20 AM 46.5°F8.1°C 41.0°F5.0°C 81% 8.1 mph SW13.0 kmh SW 10.4 mph16.7 kmh 29.57 in1001.4 mb - 0.00 in0.0 mm 0.13 in3.3 mm
09:30 AM 46.7°F8.2°C 41.5°F5.3°C 82% 5.8 mph SW9.3 kmh SW 18.4 mph29.6 kmh 29.58 in1001.7 mb - 0.00 in0.0 mm 0.13 in3.3 mm
09:40 AM 47.0°F8.3°C 41.5°F5.3°C 81% 6.9 mph SW11.1 kmh SW 13.8 mph22.2 kmh 29.58 in1001.7 mb - 0.00 in0.0 mm 0.13 in3.3 mm
09:50 AM 47.4°F8.6°C 41.5°F5.3°C 80% 10.4 mph WSW16.7 kmh WSW 16.1 mph25.9 kmh 29.58 in1001.7 mb - 0.00 in0.0 mm 0.13 in3.3 mm
10:00 AM 47.9°F8.8°C 41.7°F5.4°C 79% 9.2 mph SSW14.8 kmh SSW 13.8 mph22.2 kmh 29.58 in1001.7 mb - 0.00 in0.0 mm 0.13 in3.3 mm
10:10 AM 48.1°F8.9°C 42.2°F5.7°C 80% 13.8 mph SW22.2 kmh SW 25.3 mph40.7 kmh 29.59 in1002.0 mb - 0.00 in0.0 mm 0.13 in3.3 mm
10:20 AM 47.8°F8.8°C 42.3°F5.7°C 81% 11.5 mph SW18.5 kmh SW 19.6 mph31.5 kmh 29.60 in1002.4 mb - 0.00 in0.0 mm 0.13 in3.3 mm
10:30 AM 48.2°F9.0°C 42.7°F5.9°C 81% 4.6 mph WSW7.4 kmh WSW 11.5 mph18.5 kmh 29.61 in1002.7 mb - 0.00 in0.0 mm 0.13 in3.3 mm
10:40 AM 48.9°F9.4°C 42.7°F5.9°C 79% 10.4 mph WSW16.7 kmh WSW 19.6 mph31.5 kmh 29.62 in1003.0 mb - 0.00 in0.0 mm 0.13 in3.3 mm
10:50 AM 49.2°F9.6°C 42.7°F5.9°C 78% 9.2 mph WSW14.8 kmh WSW 20.7 mph33.3 kmh 29.61 in1002.7 mb - 0.00 in0.0 mm 0.13 in3.3 mm
11:00 AM 49.3°F9.6°C 42.4°F5.8°C 77% 9.2 mph SW14.8 kmh SW 18.4 mph29.6 kmh 29.61 in1002.7 mb - 0.00 in0.0 mm 0.13 in3.3 mm
11:10 AM 48.9°F9.4°C 42.3°F5.7°C 78% 11.5 mph SW18.5 kmh SW 23.0 mph37.0 kmh 29.62 in1003.0 mb - 0.00 in0.0 mm 0.13 in3.3 mm
11:20 AM 48.5°F9.2°C 42.9°F6.1°C 81% 6.9 mph SW11.1 kmh SW 19.6 mph31.5 kmh 29.63 in1003.4 mb - 0.00 in0.0 mm 0.13 in3.3 mm
11:30 AM 48.8°F9.3°C 43.0°F6.1°C 80% 13.8 mph SW22.2 kmh SW 18.4 mph29.6 kmh 29.64 in1003.7 mb - 0.00 in0.0 mm 0.13 in3.3 mm
11:40 AM 48.9°F9.4°C 43.0°F6.1°C 80% 9.2 mph SW14.8 kmh SW 12.7 mph20.4 kmh 29.65 in1004.1 mb - 0.01 in0.3 mm 0.13 in3.3 mm
11:50 AM 48.4°F9.1°C 43.2°F6.2°C 82% 5.8 mph WSW9.3 kmh WSW 12.7 mph20.4 kmh 29.64 in1003.7 mb - 0.01 in0.3 mm 0.13 in3.3 mm
12:00 PM 48.4°F9.1°C 42.8°F6.0°C 81% 8.1 mph SW13.0 kmh SW 15.0 mph24.1 kmh 29.64 in1003.7 mb - 0.00 in0.0 mm 0.13 in3.3 mm
12:10 PM 48.5°F9.2°C 42.6°F5.9°C 80% 11.5 mph SW18.5 kmh SW 16.1 mph25.9 kmh 29.65 in1004.1 mb - 0.00 in0.0 mm 0.13 in3.3 mm
12:20 PM 48.3°F9.1°C 42.4°F5.8°C 80% 5.8 mph SW9.3 kmh SW 11.5 mph18.5 kmh 29.65 in1004.1 mb - 0.00 in0.0 mm 0.13 in3.3 mm
12:30 PM 48.1°F8.9°C 42.5°F5.8°C 81% 8.1 mph SW13.0 kmh SW 16.1 mph25.9 kmh 29.65 in1004.1 mb - 0.00 in0.0 mm 0.13 in3.3 mm
12:40 PM 48.8°F9.3°C 42.6°F5.9°C 79% 6.9 mph WSW11.1 kmh WSW 19.6 mph31.5 kmh 29.65 in1004.1 mb - 0.00 in0.0 mm 0.13 in3.3 mm
12:50 PM 49.7°F9.8°C 42.4°F5.8°C 76% 5.8 mph WSW9.3 kmh WSW 6.9 mph11.1 kmh 29.65 in1004.1 mb - 0.00 in0.0 mm 0.13 in3.3 mm
01:00 PM 49.9°F9.9°C 42.6°F5.9°C 76% 12.7 mph SW20.4 kmh SW 11.5 mph18.5 kmh 29.66 in1004.4 mb - 0.00 in0.0 mm 0.13 in3.3 mm
01:10 PM 49.2°F9.6°C 43.3°F6.3°C 80% 10.4 mph SW16.7 kmh SW 18.4 mph29.6 kmh 29.66 in1004.4 mb - 0.00 in0.0 mm 0.13 in3.3 mm
01:20 PM 49.2°F9.6°C 43.9°F6.6°C 82% 8.1 mph WSW13.0 kmh WSW 13.8 mph22.2 kmh 29.66 in1004.4 mb - 0.00 in0.0 mm 0.13 in3.3 mm
01:30 PM 49.3°F9.6°C 43.1°F6.2°C 79% 5.8 mph SW9.3 kmh SW 8.1 mph13.0 kmh 29.66 in1004.4 mb - 0.00 in0.0 mm 0.13 in3.3 mm
01:40 PM 49.3°F9.6°C 42.7°F5.9°C 78% 8.1 mph SW13.0 kmh SW 15.0 mph24.1 kmh 29.67 in1004.7 mb - 0.00 in0.0 mm 0.13 in3.3 mm
01:50 PM 49.3°F9.6°C 43.0°F6.1°C 79% 5.8 mph SW9.3 kmh SW 11.5 mph18.5 kmh 29.66 in1004.4 mb - 0.00 in0.0 mm 0.13 in3.3 mm
02:10 PM 49.3°F9.6°C 42.7°F5.9°C 78% 5.8 mph SW9.3 kmh SW 12.7 mph20.4 kmh 29.66 in1004.4 mb - 0.00 in0.0 mm 0.13 in3.3 mm
02:20 PM 49.3°F9.6°C 42.1°F5.6°C 76% 9.2 mph SW14.8 kmh SW 16.1 mph25.9 kmh 29.67 in1004.7 mb - 0.00 in0.0 mm 0.13 in3.3 mm
02:30 PM 49.2°F9.6°C 41.6°F5.3°C 75% 9.2 mph WSW14.8 kmh WSW 16.1 mph25.9 kmh 29.68 in1005.1 mb - 0.00 in0.0 mm 0.13 in3.3 mm
02:40 PM 49.4°F9.7°C 41.8°F5.4°C 75% 4.6 mph SW7.4 kmh SW 9.2 mph14.8 kmh 29.67 in1004.7 mb - 0.00 in0.0 mm 0.13 in3.3 mm
02:50 PM 49.5°F9.7°C 41.9°F5.5°C 75% 6.9 mph SW11.1 kmh SW 11.5 mph18.5 kmh 29.67 in1004.7 mb - 0.00 in0.0 mm 0.13 in3.3 mm
03:00 PM 49.4°F9.7°C 41.8°F5.4°C 75% 10.4 mph SW16.7 kmh SW 18.4 mph29.6 kmh 29.67 in1004.7 mb - 0.00 in0.0 mm 0.13 in3.3 mm
03:10 PM 49.2°F9.6°C 41.6°F5.3°C 75% 6.9 mph SW11.1 kmh SW 11.5 mph18.5 kmh 29.67 in1004.7 mb - 0.00 in0.0 mm 0.13 in3.3 mm
03:20 PM 49.1°F9.5°C 41.9°F5.5°C 76% 5.8 mph SW9.3 kmh SW 11.5 mph18.5 kmh 29.67 in1004.7 mb - 0.00 in0.0 mm 0.13 in3.3 mm
03:30 PM 49.0°F9.4°C 41.7°F5.4°C 76% 10.4 mph SW16.7 kmh SW 18.4 mph29.6 kmh 29.68 in1005.1 mb - 0.00 in0.0 mm 0.13 in3.3 mm
03:40 PM 48.8°F9.3°C 41.9°F5.5°C 77% Calm Calm 4.6 mph7.4 kmh 29.68 in1005.1 mb - 0.00 in0.0 mm 0.13 in3.3 mm
03:50 PM 48.6°F9.2°C 42.0°F5.6°C 78% 5.8 mph SSW9.3 kmh SSW 9.2 mph14.8 kmh 29.68 in1005.1 mb - 0.00 in0.0 mm 0.13 in3.3 mm
04:00 PM 48.3°F9.1°C 42.4°F5.8°C 80% 6.9 mph SW11.1 kmh SW 15.0 mph24.1 kmh 29.69 in1005.4 mb - 0.00 in0.0 mm 0.13 in3.3 mm
04:10 PM 48.1°F8.9°C 42.5°F5.8°C 81% 4.6 mph SW7.4 kmh SW 9.2 mph14.8 kmh 29.69 in1005.4 mb - 0.00 in0.0 mm 0.13 in3.3 mm
04:20 PM 47.9°F8.8°C 42.3°F5.7°C 81% 3.5 mph SW5.6 kmh SW 3.5 mph5.6 kmh 29.69 in1005.4 mb - 0.00 in0.0 mm 0.13 in3.3 mm
04:30 PM 47.8°F8.8°C 42.3°F5.7°C 81% Calm Calm 5.8 mph9.3 kmh 29.68 in1005.1 mb - 0.00 in0.0 mm 0.13 in3.3 mm
04:40 PM 47.8°F8.8°C 42.0°F5.6°C 80% Calm Calm -- 29.69 in1005.4 mb - 0.00 in0.0 mm 0.13 in3.3 mm
04:50 PM 47.8°F8.8°C 41.9°F5.5°C 80% 2.3 mph SW3.7 kmh SW 8.1 mph13.0 kmh 29.68 in1005.1 mb - 0.00 in0.0 mm 0.13 in3.3 mm
05:00 PM 47.8°F8.8°C 41.9°F5.5°C 80% 3.5 mph SW5.6 kmh SW 11.5 mph18.5 kmh 29.68 in1005.1 mb - 0.00 in0.0 mm 0.13 in3.3 mm
05:10 PM 47.8°F8.8°C 42.3°F5.7°C 81% 3.5 mph SW5.6 kmh SW 11.5 mph18.5 kmh 29.68 in1005.1 mb - 0.00 in0.0 mm 0.13 in3.3 mm
05:20 PM 47.8°F8.8°C 42.2°F5.7°C 81% 2.3 mph WSW3.7 kmh WSW 9.2 mph14.8 kmh 29.67 in1004.7 mb - 0.00 in0.0 mm 0.13 in3.3 mm
05:30 PM 47.6°F8.7°C 42.4°F5.8°C 82% 4.6 mph SW7.4 kmh SW 9.2 mph14.8 kmh 29.67 in1004.7 mb - 0.00 in0.0 mm 0.13 in3.3 mm
05:40 PM 47.5°F8.6°C 42.3°F5.7°C 82% 3.5 mph SW5.6 kmh SW 12.7 mph20.4 kmh 29.67 in1004.7 mb - 0.00 in0.0 mm 0.13 in3.3 mm
05:50 PM 47.5°F8.6°C 42.3°F5.7°C 82% 3.5 mph SW5.6 kmh SW 6.9 mph11.1 kmh 29.67 in1004.7 mb - 0.00 in0.0 mm 0.13 in3.3 mm
06:00 PM 47.5°F8.6°C 42.3°F5.7°C 82% 4.6 mph SSW7.4 kmh SSW 11.5 mph18.5 kmh 29.66 in1004.4 mb - 0.00 in0.0 mm 0.13 in3.3 mm
06:10 PM 47.7°F8.7°C 42.2°F5.7°C 81% 1.2 mph SW1.9 kmh SW 3.5 mph5.6 kmh 29.66 in1004.4 mb - 0.00 in0.0 mm 0.13 in3.3 mm
06:20 PM 47.9°F8.8°C 42.3°F5.7°C 81% 4.6 mph SW7.4 kmh SW 10.4 mph16.7 kmh 29.67 in1004.7 mb - 0.00 in0.0 mm 0.13 in3.3 mm
06:30 PM 48.0°F8.9°C 42.1°F5.6°C 80% 2.3 mph SSW3.7 kmh SSW 8.1 mph13.0 kmh 29.67 in1004.7 mb - 0.00 in0.0 mm 0.13 in3.3 mm
06:40 PM 48.1°F8.9°C 42.2°F5.7°C 80% 4.6 mph SSW7.4 kmh SSW 6.9 mph11.1 kmh 29.67 in1004.7 mb - 0.00 in0.0 mm 0.13 in3.3 mm
06:50 PM 48.2°F9.0°C 42.3°F5.7°C 80% 2.3 mph SW3.7 kmh SW 6.9 mph11.1 kmh 29.66 in1004.4 mb - 0.00 in0.0 mm 0.13 in3.3 mm
07:00 PM 48.2°F9.0°C 42.6°F5.9°C 81% 5.8 mph SSW9.3 kmh SSW 10.4 mph16.7 kmh 29.66 in1004.4 mb - 0.00 in0.0 mm 0.13 in3.3 mm
11:00 PM 44.8°F7.1°C 41.5°F5.3°C 88% 4.6 mph SSW7.4 kmh SSW 8.1 mph13.0 kmh 29.62 in1003.0 mb - 0.00 in0.0 mm 0.13 in3.3 mm
11:10 PM 44.8°F7.1°C 41.5°F5.3°C 88% 1.2 mph SW1.9 kmh SW 3.5 mph5.6 kmh 29.62 in1003.0 mb - 0.00 in0.0 mm 0.13 in3.3 mm
11:20 PM 44.9°F7.2°C 41.5°F5.3°C 88% 1.2 mph SSW1.9 kmh SSW 5.8 mph9.3 kmh 29.60 in1002.4 mb - 0.00 in0.0 mm 0.13 in3.3 mm
11:30 PM 44.9°F7.2°C 41.9°F5.5°C 89% Calm Calm -- 29.61 in1002.7 mb - 0.00 in0.0 mm 0.13 in3.3 mm
11:40 PM 45.0°F7.2°C 42.0°F5.6°C 89% 4.6 mph SSW7.4 kmh SSW 9.2 mph14.8 kmh 29.60 in1002.4 mb - 0.00 in0.0 mm 0.13 in3.3 mm
11:50 PM 45.0°F7.2°C 42.0°F5.6°C 89% 1.2 mph SW1.9 kmh SW 6.9 mph11.1 kmh 29.59 in1002.0 mb - 0.00 in0.0 mm 0.13 in3.3 mm